Time;durP1;ratioP1;P1;durP2;ratioP2;P2;SDS_P1;SDS_P2;PMS_P1;PMS_P2;Temp;Humidity;BMP_temperature;BMP_pressure;BME280_temperature;BME280_humidity;BME280_pressure;Samples;Min_cycle;Max_cycle;Signal;HPM_P1;HPM_P2
2023/05/11 00:00:45;;;;;;;4.28;2.83;;;;;;;14.73;45.95;99006.31;5026739;28;20045;-73
2023/05/11 00:03:12;;;;;;;6.80;3.22;;;;;;;14.69;45.95;99004.00;5026119;28;20044;-72
2023/05/11 00:05:38;;;;;;;4.22;2.78;;;;;;;14.68;45.96;98997.81;5026330;28;20086;-72
2023/05/11 00:08:07;;;;;;;4.25;2.65;;;;;;;14.53;45.83;98971.44;5025128;28;20296;-72
2023/05/11 00:10:34;;;;;;;5.93;2.80;;;;;;;14.67;46.01;98990.78;5025116;28;20335;-73
2023/05/11 00:13:00;;;;;;;4.13;2.80;;;;;;;14.66;46.01;98996.25;5026238;28;20064;-73
2023/05/11 00:15:27;;;;;;;3.15;2.25;;;;;;;14.67;46.02;98989.94;5026155;28;20042;-73
2023/05/11 00:17:54;;;;;;;3.90;2.78;;;;;;;14.66;45.82;98989.09;5025049;28;20125;-73
2023/05/11 00:20:22;;;;;;;4.57;2.30;;;;;;;14.67;45.84;98992.63;5025404;28;20062;-73
2023/05/11 00:22:48;;;;;;;6.60;2.83;;;;;;;14.67;46.10;98987.28;5024990;28;20183;-72
2023/05/11 00:25:16;;;;;;;3.42;2.90;;;;;;;14.63;46.19;98994.66;5025917;28;20100;-72
2023/05/11 00:27:44;;;;;;;5.93;3.30;;;;;;;14.59;46.24;98995.00;5025702;28;20041;-73
2023/05/11 00:30:13;;;;;;;5.22;3.00;;;;;;;14.57;46.28;98994.22;5025842;28;20045;-71
2023/05/11 00:32:40;;;;;;;4.00;2.50;;;;;;;14.56;46.21;98993.38;5025476;28;20286;-72
2023/05/11 00:35:08;;;;;;;4.15;3.10;;;;;;;14.57;46.30;98988.91;5024893;28;20132;-71
2023/05/11 00:37:35;;;;;;;5.03;3.05;;;;;;;14.56;46.36;98987.19;5024817;28;20045;-71
2023/05/11 00:40:01;;;;;;;3.63;2.70;;;;;;;14.55;46.38;98990.81;5024830;28;20046;-72
2023/05/11 00:42:29;;;;;;;6.35;2.60;;;;;;;14.51;46.43;98990.22;5024834;28;20092;-72
2023/05/11 00:44:57;;;;;;;5.22;3.40;;;;;;;14.50;46.49;98993.84;5025609;28;20109;-72
2023/05/11 00:47:23;;;;;;;6.63;2.92;;;;;;;14.50;46.34;98995.66;5024704;28;20376;-72
2023/05/11 00:49:52;;;;;;;5.85;3.35;;;;;;;14.46;46.52;98997.72;5026144;28;20202;-72
2023/05/11 00:52:19;;;;;;;3.70;2.85;;;;;;;14.44;46.53;98989.84;5026079;28;20050;-72
2023/05/11 00:54:47;;;;;;;5.50;3.45;;;;;;;14.44;46.57;98987.16;5025737;28;20053;-73
2023/05/11 00:57:14;;;;;;;4.25;2.67;;;;;;;14.41;46.74;99000.75;5025426;28;20051;-72
2023/05/11 00:59:43;;;;;;;3.90;2.80;;;;;;;14.24;46.81;98968.34;5024675;28;20046;-72
2023/05/11 01:02:10;;;;;;;5.68;2.67;;;;;;;14.38;46.65;98995.66;5024653;28;20041;-73
2023/05/11 01:04:37;;;;;;;3.72;2.72;;;;;;;14.36;46.73;98996.72;5025965;28;20052;-72
2023/05/11 01:07:09;;;;;;;3.92;2.55;;;;;;;14.33;47.04;99000.47;5025333;28;20054;-73
2023/05/11 01:09:46;;;;;;;5.60;2.90;;;;;;;14.31;47.43;98988.22;5025629;28;20046;-73
2023/05/11 01:12:20;;;;;;;4.03;2.78;;;;;;;14.24;47.22;98995.84;5025354;28;20050;-72
2023/05/11 01:14:57;;;;;;;4.18;2.88;;;;;;;14.09;47.83;98973.03;5025890;28;20179;-72
2023/05/11 01:17:36;;;;;;;4.68;2.58;;;;;;;14.20;47.58;98994.38;5024496;28;20092;-72
2023/05/11 01:20:08;;;;;;;4.28;2.90;;;;;;;14.21;47.37;98992.56;5025451;28;20383;-72
2023/05/11 01:22:49;;;;;;;3.30;2.63;;;;;;;14.21;47.78;98997.88;5025579;28;20316;-73
2023/05/11 01:25:31;;;;;;;4.82;2.78;;;;;;;14.19;48.12;98990.00;5025542;28;20084;-72
2023/05/11 01:28:31;;;;;;;4.75;3.10;;;;;;;14.20;48.08;98990.88;5025480;28;20193;-72
2023/05/11 01:31:07;;;;;;;4.20;3.00;;;;;;;14.18;47.77;98988.31;4974885;28;20064;-72
2023/05/11 01:33:36;;;;;;;4.57;2.75;;;;;;;14.20;47.26;98982.88;5024347;28;20042;-72
2023/05/11 01:36:07;;;;;;;3.58;2.75;;;;;;;14.19;47.77;98984.69;5025672;28;20104;-72
2023/05/11 01:38:38;;;;;;;3.63;2.70;;;;;;;14.19;47.75;98992.69;5025447;28;20269;-72
2023/05/11 01:41:12;;;;;;;4.25;2.78;;;;;;;14.17;47.72;98999.94;5025070;28;20052;-72
2023/05/11 01:43:40;;;;;;;3.87;3.07;;;;;;;14.16;47.38;98984.91;5025891;28;20125;-72
2023/05/11 01:46:10;;;;;;;5.25;3.17;;;;;;;14.15;47.52;98993.03;5028095;28;20494;-72
2023/05/11 01:48:42;;;;;;;4.78;3.10;;;;;;;14.12;47.77;98991.44;5028419;28;20320;-73
2023/05/11 01:51:09;;;;;;;5.63;3.47;;;;;;;14.11;47.59;98997.72;5028860;28;20045;-72
2023/05/11 01:53:39;;;;;;;3.85;3.15;;;;;;;14.07;47.83;99002.44;5028846;28;20041;-73
2023/05/11 01:56:07;;;;;;;5.65;3.30;;;;;;;14.09;47.60;98999.66;5027670;28;20038;-72
2023/05/11 01:58:36;;;;;;;4.32;2.92;;;;;;;13.95;47.84;98986.53;5028444;28;20053;-73
2023/05/11 02:01:04;;;;;;;5.22;3.08;;;;;;;13.99;47.68;98985.34;5028564;28;20348;-73
2023/05/11 02:03:35;;;;;;;3.47;2.67;;;;;;;13.92;48.07;98976.09;5029086;28;20038;-73
2023/05/11 02:06:04;;;;;;;4.03;2.78;;;;;;;14.03;48.09;98997.47;5028623;28;20340;-73
2023/05/11 02:08:32;;;;;;;5.88;3.03;;;;;;;14.01;47.85;98999.38;5028467;28;20054;-73
2023/05/11 02:11:02;;;;;;;3.45;2.83;;;;;;;14.02;48.11;98995.75;5028501;28;20046;-73
2023/05/11 02:13:30;;;;;;;4.55;3.20;;;;;;;14.00;48.40;98997.69;5028170;28;20064;-73
2023/05/11 02:15:57;;;;;;;4.18;3.00;;;;;;;13.99;48.15;98999.50;5028090;28;20092;-72
2023/05/11 02:18:24;;;;;;;6.32;2.75;;;;;;;13.83;48.26;98974.13;5027253;28;20037;-72
2023/05/11 02:20:53;;;;;;;4.75;3.20;;;;;;;13.97;48.72;99000.59;5027969;28;20356;-72
2023/05/11 02:23:23;;;;;;;5.45;3.33;;;;;;;13.95;48.61;98995.38;5028010;28;20050;-73
2023/05/11 02:25:52;;;;;;;4.53;3.15;;;;;;;13.94;48.73;98995.47;5028231;28;20088;-74
2023/05/11 02:28:19;;;;;;;5.68;3.50;;;;;;;13.95;48.69;99002.50;5027053;28;20080;-73
2023/05/11 02:30:50;;;;;;;5.65;3.58;;;;;;;13.80;48.72;98980.53;5027877;28;20273;-74
2023/05/11 02:33:23;;;;;;;4.75;2.80;;;;;;;13.93;48.96;99010.63;5028330;28;20038;-74
2023/05/11 02:35:55;;;;;;;4.47;3.15;;;;;;;13.90;49.16;99010.00;5027782;28;20054;-73
2023/05/11 02:38:26;;;;;;;6.78;3.08;;;;;;;13.87;48.95;99008.41;5028222;28;20091;-73
2023/05/11 02:40:57;;;;;;;4.78;3.42;;;;;;;13.86;49.31;99014.69;5027621;28;20057;-72
2023/05/11 02:43:29;;;;;;;5.65;3.03;;;;;;;13.81;48.95;99000.88;5027822;28;20077;-74
2023/05/11 02:46:01;;;;;;;4.22;3.30;;;;;;;13.85;49.66;99001.50;5027318;28;20049;-73
2023/05/11 02:48:32;;;;;;;5.38;3.40;;;;;;;13.85;49.26;99004.16;5027479;28;20038;-73
2023/05/11 02:51:03;;;;;;;5.50;3.63;;;;;;;13.83;49.37;99004.28;5026648;28;20049;-73
2023/05/11 02:53:32;;;;;;;6.28;3.20;;;;;;;13.82;48.95;98999.06;5027365;28;20041;-73
2023/05/11 02:56:00;;;;;;;4.43;3.20;;;;;;;13.80;49.04;99004.50;5027900;28;20049;-73
2023/05/11 02:58:27;;;;;;;4.72;3.20;;;;;;;13.76;49.15;99011.88;5027336;28;20038;-73
2023/05/11 03:00:55;;;;;;;6.20;3.83;;;;;;;13.76;49.16;99009.19;5027297;28;20045;-73
2023/05/11 03:03:21;;;;;;;3.70;3.05;;;;;;;13.78;49.21;99006.44;5026390;28;20052;-74
2023/05/11 03:05:48;;;;;;;7.35;3.83;;;;;;;13.78;49.57;99009.94;5027193;28;20112;-73
2023/05/11 03:08:16;;;;;;;4.95;2.97;;;;;;;13.74;49.42;99007.63;5026179;28;20042;-74
2023/05/11 03:10:43;;;;;;;6.55;3.33;;;;;;;13.73;49.48;99014.75;5027089;28;20041;-74
2023/05/11 03:13:10;;;;;;;4.00;3.33;;;;;;;13.75;49.43;99004.00;5027037;28;20052;-73
2023/05/11 03:15:38;;;;;;;4.90;3.10;;;;;;;12.48;49.51;98784.41;5026156;28;20038;-73
2023/05/11 03:18:06;;;;;;;3.90;3.22;;;;;;;13.79;49.57;99002.81;5027487;28;20045;-72
2023/05/11 03:20:36;;;;;;;6.63;3.42;;;;;;;13.79;49.65;99005.47;5026906;28;20088;-74
2023/05/11 03:23:05;;;;;;;4.97;3.53;;;;;;;11.54;49.33;98629.13;5026921;28;20048;-73
2023/05/11 03:25:33;;;;;;;5.13;3.33;;;;;;;13.76;49.56;99001.22;5027283;28;20045;-74
2023/05/11 03:28:01;;;;;;;4.50;3.65;;;;;;;13.77;49.80;99005.56;5027246;28;20045;-74
2023/05/11 03:30:29;;;;;;;5.57;3.38;;;;;;;13.25;49.51;98928.66;5027023;28;20197;-74
2023/05/11 03:32:56;;;;;;;9.75;4.20;;;;;;;13.70;49.70;98999.00;5026659;28;20050;-74
2023/05/11 03:35:24;;;;;;;5.38;3.78;;;;;;;13.68;49.80;98997.41;5025836;28;20060;-73
2023/05/11 03:37:54;;;;;;;6.40;3.78;;;;;;;13.65;49.68;99000.31;5026790;28;20064;-74
2023/05/11 03:40:23;;;;;;;4.75;3.55;;;;;;;13.61;49.87;98991.69;5027092;28;20054;-74
2023/05/11 03:42:54;;;;;;;4.82;3.88;;;;;;;13.62;49.94;98989.88;5025705;28;20052;-73
2023/05/11 03:45:21;;;;;;;4.20;3.35;;;;;;;13.61;49.98;98988.19;5026507;28;20038;-73
2023/05/11 03:47:49;;;;;;;5.20;4.10;;;;;;;13.60;49.85;98991.81;5025898;28;20053;-73
2023/05/11 03:50:17;;;;;;;7.25;5.03;;;;;;;13.60;50.17;98987.31;5026399;28;20113;-74
2023/05/11 03:52:45;;;;;;;7.68;4.32;;;;;;;13.45;50.34;98972.47;5026351;28;20042;-74
2023/05/11 03:55:11;;;;;;;5.30;4.25;;;;;;;13.56;50.17;98991.19;5026620;28;20053;-74
2023/05/11 03:57:38;;;;;;;6.53;4.47;;;;;;;13.55;50.39;98992.13;5026257;28;20145;-74
2023/05/11 04:00:11;;;;;;;4.60;3.50;;;;;;;13.54;50.66;98998.44;5026462;28;20037;-74
2023/05/11 04:02:38;;;;;;;5.70;3.53;;;;;;;13.55;50.49;98993.94;5025423;28;20053;-74
2023/05/11 04:05:07;;;;;;;5.20;4.05;;;;;;;13.54;50.68;98993.09;5026064;28;20042;-73
2023/05/11 04:07:34;;;;;;;5.10;3.67;;;;;;;13.57;50.05;98994.69;5025600;28;20092;-74
2023/05/11 04:10:01;;;;;;;7.20;3.55;;;;;;;13.60;50.31;98995.31;5025114;28;20309;-74
2023/05/11 04:12:28;;;;;;;6.15;4.22;;;;;;;13.63;50.15;98997.75;5025164;28;20301;-73
2023/05/11 04:14:55;;;;;;;6.35;3.75;;;;;;;13.24;50.37;98950.91;5025155;28;20049;-74
2023/05/11 04:17:23;;;;;;;5.53;3.83;;;;;;;13.61;50.51;98998.81;5026472;28;20108;-74
2023/05/11 04:19:50;;;;;;;6.60;3.80;;;;;;;13.57;50.29;99000.88;5025828;28;20310;-74
2023/05/11 04:22:17;;;;;;;7.10;3.70;;;;;;;13.58;50.53;98999.91;5026384;28;20041;-74
2023/05/11 04:24:44;;;;;;;4.05;3.47;;;;;;;13.57;50.58;99003.53;5026379;28;20056;-73
2023/05/11 04:27:11;;;;;;;6.47;3.95;;;;;;;13.55;50.57;99004.59;5025783;28;20212;-73
2023/05/11 04:29:37;;;;;;;7.45;4.63;;;;;;;13.54;50.50;99001.09;5024862;28;20029;-74
2023/05/11 04:32:04;;;;;;;4.75;3.85;;;;;;;13.51;50.63;99003.97;5025775;28;20111;-74
2023/05/11 04:34:33;;;;;;;5.15;3.85;;;;;;;13.50;50.79;99012.06;5025932;28;20052;-74
2023/05/11 04:36:59;;;;;;;6.00;3.83;;;;;;;13.50;50.72;99007.59;5025840;28;20193;-71
2023/05/11 04:39:26;;;;;;;5.00;3.97;;;;;;;13.51;50.49;99011.09;5025885;28;20297;-72
2023/05/11 04:41:53;;;;;;;5.93;3.90;;;;;;;13.51;50.77;99014.63;5024726;28;20037;-74
2023/05/11 04:44:20;;;;;;;5.63;3.83;;;;;;;13.52;50.74;99023.47;5025502;28;20061;-74
2023/05/11 04:46:46;;;;;;;6.97;4.57;;;;;;;13.51;50.54;99014.63;5024680;28;20221;-72
2023/05/11 04:49:13;;;;;;;5.20;3.85;;;;;;;13.53;50.49;99014.50;5025743;28;20324;-72
2023/05/11 04:51:41;;;;;;;4.13;3.22;;;;;;;13.54;50.67;99008.22;5025395;28;20088;-71
2023/05/11 04:54:09;;;;;;;10.25;3.58;;;;;;;13.57;50.54;99010.66;5024607;28;20042;-72
2023/05/11 04:56:39;;;;;;;5.07;3.95;;;;;;;13.59;50.95;99014.91;5024615;28;20197;-72
2023/05/11 04:59:06;;;;;;;5.72;3.67;;;;;;;13.62;50.60;99009.38;5025401;28;20045;-72
2023/05/11 05:01:33;;;;;;;5.10;4.22;;;;;;;13.69;50.79;99021.28;5024606;28;20038;-71
2023/05/11 05:03:59;;;;;;;7.38;4.13;;;;;;;13.52;50.95;98980.84;5025605;28;20202;-72
2023/05/11 05:06:26;;;;;;;10.70;4.25;;;;;;;13.24;50.80;98928.75;5025868;28;20229;-72
2023/05/11 05:08:54;;;;;;;6.18;4.03;;;;;;;13.79;50.96;99024.97;5024427;28;20046;-72
2023/05/11 05:11:21;;;;;;;29.80;5.82;;;;;;;13.86;50.58;99022.69;5025882;28;20049;-72
2023/05/11 05:13:48;;;;;;;5.90;4.25;;;;;;;13.70;50.59;98991.00;5025304;28;20293;-71
2023/05/11 05:16:14;;;;;;;7.43;3.80;;;;;;;13.91;50.67;99027.69;5025545;28;20174;-71
2023/05/11 05:18:41;;;;;;;5.70;3.80;;;;;;;13.92;50.54;99032.91;5027014;28;20092;-71
2023/05/11 05:21:08;;;;;;;5.85;4.25;;;;;;;13.94;50.64;99035.44;5028038;28;20062;-72
2023/05/11 05:23:34;;;;;;;6.20;4.57;;;;;;;13.94;50.64;99030.97;5029169;28;20058;-74
2023/05/11 05:26:02;;;;;;;6.20;3.63;;;;;;;13.97;50.63;99035.22;5029364;28;20046;-72
2023/05/11 05:28:29;;;;;;;6.10;4.25;;;;;;;13.96;50.52;99031.69;5029241;28;20092;-72
2023/05/11 05:30:56;;;;;;;6.40;4.18;;;;;;;14.00;50.82;99035.00;5028930;28;20052;-72
2023/05/11 05:33:23;;;;;;;5.47;4.07;;;;;;;13.62;50.53;98980.06;5028858;28;20289;-71
2023/05/11 05:35:49;;;;;;;5.90;4.30;;;;;;;14.00;50.55;99030.50;5028133;28;20034;-71
2023/05/11 05:38:16;;;;;;;8.25;4.30;;;;;;;14.01;50.58;99042.88;5029108;28;20061;-72
2023/05/11 05:40:43;;;;;;;8.82;4.90;;;;;;;14.04;50.59;99037.31;5028712;28;20084;-71
2023/05/11 05:43:11;;;;;;;7.85;3.67;;;;;;;14.10;50.51;99038.66;5027809;28;20042;-71
2023/05/11 05:45:38;;;;;;;9.63;3.97;;;;;;;14.15;50.41;99038.31;5029215;28;20060;-72
2023/05/11 05:48:05;;;;;;;8.23;4.30;;;;;;;14.19;50.90;99045.97;5028008;28;20038;-73
2023/05/11 05:50:32;;;;;;;8.23;5.43;;;;;;;14.18;50.91;99044.28;5028893;28;20053;-72
2023/05/11 05:52:59;;;;;;;7.28;4.07;;;;;;;14.08;50.67;99028.13;5027676;28;20303;-72
2023/05/11 05:55:26;;;;;;;6.50;5.07;;;;;;;14.05;50.66;99025.69;5027715;28;20309;-72
2023/05/11 05:57:53;;;;;;;7.10;4.60;;;;;;;14.19;50.49;99053.97;5028178;28;20046;-71
2023/05/11 06:00:21;;;;;;;8.00;4.55;;;;;;;14.20;50.60;99053.00;5027566;28;20201;-73
2023/05/11 06:02:48;;;;;;;6.93;4.45;;;;;;;14.25;50.74;99055.34;5028266;28;20041;-73
2023/05/11 06:05:14;;;;;;;7.50;4.32;;;;;;;14.29;50.36;99054.13;5028311;28;20290;-72
2023/05/11 06:07:41;;;;;;;6.05;4.55;;;;;;;14.11;50.48;99019.91;5027458;28;20088;-73
2023/05/11 06:10:08;;;;;;;7.38;4.10;;;;;;;14.29;50.18;99056.81;5028144;28;20103;-73
2023/05/11 06:12:34;;;;;;;6.53;4.55;;;;;;;14.27;50.29;99064.91;5028661;28;20041;-73
2023/05/11 06:15:01;;;;;;;7.07;4.20;;;;;;;14.27;50.18;99053.41;5028210;28;20049;-73
2023/05/11 06:17:30;;;;;;;4.90;4.40;;;;;;;14.20;49.93;99053.00;5028408;28;20305;-73
2023/05/11 06:19:56;;;;;;;6.45;3.80;;;;;;;13.98;50.06;99028.94;5027861;28;20056;-73
2023/05/11 06:22:23;;;;;;;7.65;4.82;;;;;;;14.15;49.92;99060.50;5027052;28;20046;-73
2023/05/11 06:24:50;;;;;;;6.97;4.82;;;;;;;14.15;49.95;99055.16;5027076;28;20046;-73
2023/05/11 06:27:17;;;;;;;9.23;4.50;;;;;;;14.19;49.94;99061.13;5028007;28;20073;-73
2023/05/11 06:29:43;;;;;;;8.05;4.80;;;;;;;14.27;49.63;99069.41;5027309;28;20060;-73
2023/05/11 06:32:10;;;;;;;7.85;4.32;;;;;;;14.31;49.46;99055.72;5010881;28;20041;-72
2023/05/11 06:34:38;;;;;;;5.15;3.45;;;;;;;14.35;49.14;99057.19;5027423;28;20048;-73
2023/05/11 06:37:06;;;;;;;7.25;4.57;;;;;;;14.35;49.23;99067.00;5027590;28;20061;-72
2023/05/11 06:39:36;;;;;;;6.13;4.70;;;;;;;14.36;49.07;99061.56;5027850;28;20053;-73
2023/05/11 06:42:03;;;;;;;5.57;4.15;;;;;;;14.42;49.17;99061.09;5010699;28;20037;-73
2023/05/11 06:44:30;;;;;;;8.55;4.57;;;;;;;14.49;49.20;99069.47;5027788;28;20069;-72
2023/05/11 06:46:57;;;;;;;6.00;4.10;;;;;;;14.50;48.82;99073.00;5027700;28;20046;-72
2023/05/11 06:49:24;;;;;;;6.05;4.00;;;;;;;14.51;48.92;99066.69;5026386;28;20084;-72
2023/05/11 06:51:52;;;;;;;4.47;3.72;;;;;;;14.21;48.52;99020.06;5027727;28;20064;-73
2023/05/11 06:54:19;;;;;;;5.00;4.10;;;;;;;14.53;48.70;99062.94;5027577;28;20057;-74
2023/05/11 06:56:46;;;;;;;5.07;3.95;;;;;;;14.58;48.63;99067.97;5026063;28;20053;-74
2023/05/11 06:59:12;;;;;;;5.47;4.03;;;;;;;14.30;49.03;99010.53;5026484;28;20038;-74
2023/05/11 07:01:39;;;;;;;7.30;4.28;;;;;;;14.64;48.62;99065.72;5027169;28;20095;-74
2023/05/11 07:04:06;;;;;;;6.57;3.88;;;;;;;14.63;48.55;99057.81;5027490;28;20041;-74
2023/05/11 07:06:33;;;;;;;6.15;4.10;;;;;;;14.64;48.66;99057.72;5026295;28;20048;-74
2023/05/11 07:09:02;;;;;;;6.57;3.60;;;;;;;14.65;48.71;99050.56;5026120;28;20042;-74
2023/05/11 07:11:30;;;;;;;5.35;4.38;;;;;;;14.73;48.65;99053.50;5026884;28;20038;-74
2023/05/11 07:13:56;;;;;;;6.22;4.25;;;;;;;14.81;48.70;99053.75;5026912;28;20060;-74
2023/05/11 07:16:23;;;;;;;6.13;3.97;;;;;;;14.80;48.53;99053.88;5027110;28;20109;-74
2023/05/11 07:18:50;;;;;;;9.88;4.20;;;;;;;14.81;48.21;99059.09;5027484;28;20045;-74
2023/05/11 07:21:17;;;;;;;6.85;3.55;;;;;;;14.84;47.97;99056.19;5026861;28;20072;-74
2023/05/11 07:23:44;;;;;;;5.47;4.30;;;;;;;14.92;47.77;99058.25;5026848;28;20052;-74
2023/05/11 07:26:12;;;;;;;4.68;3.83;;;;;;;14.95;47.69;99058.88;5026757;28;20293;-74
2023/05/11 07:28:39;;;;;;;6.82;3.95;;;;;;;15.03;47.86;99051.09;5025838;28;20042;-74
2023/05/11 07:31:06;;;;;;;5.32;3.65;;;;;;;15.10;47.58;99055.97;5026700;28;20037;-74
2023/05/11 07:33:33;;;;;;;8.00;3.80;;;;;;;15.17;47.29;99055.38;5026724;28;20274;-74
2023/05/11 07:36:04;;;;;;;5.45;3.58;;;;;;;15.24;47.45;99053.91;5026914;28;20038;-74
2023/05/11 07:38:31;;;;;;;10.55;4.72;;;;;;;15.29;47.49;99059.72;5025724;28;20336;-74
2023/05/11 07:40:58;;;;;;;5.95;4.13;;;;;;;15.29;47.38;99061.56;5025632;28;20038;-74
2023/05/11 07:43:26;;;;;;;6.22;4.03;;;;;;;15.39;46.91;99051.84;5026751;28;20045;-74
2023/05/11 07:45:53;;;;;;;4.43;3.22;;;;;;;15.53;46.80;99051.59;5026978;28;20065;-74
2023/05/11 07:48:20;;;;;;;5.78;4.03;;;;;;;15.62;46.56;99058.00;5026795;28;20037;-74
2023/05/11 07:50:48;;;;;;;9.73;4.13;;;;;;;15.70;46.64;99048.44;5025952;28;20053;-73
2023/05/11 07:53:15;;;;;;;6.30;4.07;;;;;;;15.77;46.18;99040.78;5025494;28;20096;-74
2023/05/11 07:55:41;;;;;;;7.63;3.80;;;;;;;15.82;46.08;99043.91;5026249;28;20103;-74
2023/05/11 07:58:08;;;;;;;8.32;4.30;;;;;;;15.89;46.14;99038.91;5025110;28;20253;-74
2023/05/11 08:00:37;;;;;;;5.60;3.83;;;;;;;15.55;46.03;98977.53;5026016;28;20065;-74
2023/05/11 08:03:05;;;;;;;6.07;4.03;;;;;;;15.92;46.26;99044.03;5026263;28;20241;-74
2023/05/11 08:05:36;;;;;;;5.97;4.25;;;;;;;15.95;46.23;99041.94;5026101;28;20056;-74
2023/05/11 08:08:03;;;;;;;6.10;4.60;;;;;;;15.96;46.42;99040.97;5025966;28;20235;-74
2023/05/11 08:10:30;;;;;;;5.45;4.10;;;;;;;15.97;46.16;99039.16;5025606;28;20045;-74
2023/05/11 08:12:57;;;;;;;5.45;3.88;;;;;;;15.93;45.80;99045.72;5026306;28;20277;-74
2023/05/11 08:15:24;;;;;;;6.07;3.95;;;;;;;15.88;46.42;99050.59;5026121;28;20054;-73
2023/05/11 08:17:53;;;;;;;5.95;4.00;;;;;;;15.90;46.56;99049.50;5024779;28;20038;-73
2023/05/11 08:20:20;;;;;;;4.60;3.33;;;;;;;16.01;46.27;99046.78;5025737;28;20046;-73
2023/05/11 08:22:46;;;;;;;7.78;4.38;;;;;;;16.12;45.91;99045.03;5025579;28;20165;-73
2023/05/11 08:25:13;;;;;;;5.28;3.95;;;;;;;16.25;46.16;99035.88;5024912;28;20064;-73
2023/05/11 08:27:40;;;;;;;5.55;4.40;;;;;;;16.42;46.03;99045.16;5024942;28;20108;-73
2023/05/11 08:30:08;;;;;;;6.07;3.92;;;;;;;15.73;45.51;98915.59;5024785;28;20041;-73
2023/05/11 08:32:35;;;;;;;5.88;4.32;;;;;;;16.44;45.48;99032.50;5025683;28;20045;-73
2023/05/11 08:35:04;;;;;;;10.10;4.25;;;;;;;16.38;45.78;99048.22;5026113;28;20038;-73
2023/05/11 08:37:31;;;;;;;5.80;3.97;;;;;;;16.35;45.97;99046.66;5025615;28;20038;-74
2023/05/11 08:39:58;;;;;;;10.57;4.50;;;;;;;16.43;45.27;99051.34;5025791;28;20046;-73
2023/05/11 08:42:26;;;;;;;6.35;4.57;;;;;;;16.23;45.67;99013.78;5025657;28;20245;-74
2023/05/11 08:44:56;;;;;;;8.13;4.40;;;;;;;16.33;45.89;99021.88;5025575;28;20092;-74
2023/05/11 08:47:24;;;;;;;7.20;4.88;;;;;;;16.47;45.92;99028.72;5025522;28;20045;-73
2023/05/11 08:49:52;;;;;;;6.75;4.57;;;;;;;16.52;45.31;99027.34;5025009;28;20046;-74
2023/05/11 08:52:22;;;;;;;7.10;4.82;;;;;;;16.59;45.20;99035.72;5025890;28;20121;-74
2023/05/11 08:54:49;;;;;;;5.75;4.28;;;;;;;16.74;45.08;99029.09;5028737;28;20037;-74
2023/05/11 08:57:16;;;;;;;8.18;4.45;;;;;;;16.84;45.14;99016.59;5030048;28;20220;-74
2023/05/11 08:59:45;;;;;;;5.68;4.00;;;;;;;16.88;44.86;99017.19;5028528;28;20133;-74
2023/05/11 09:02:18;;;;;;;7.85;4.07;;;;;;;16.90;44.21;99024.09;5029117;28;20068;-73
2023/05/11 09:04:46;;;;;;;14.27;4.35;;;;;;;16.91;44.70;99012.41;5028257;28;20189;-73
2023/05/11 09:07:16;;;;;;;5.38;4.05;;;;;;;16.96;44.27;99006.66;5029218;28;20205;-73
2023/05/11 09:09:45;;;;;;;6.13;4.28;;;;;;;16.96;43.95;99004.00;5029180;28;20101;-74
2023/05/11 09:12:12;;;;;;;8.02;3.90;;;;;;;17.03;44.48;98998.94;5029195;28;20252;-74
2023/05/11 09:14:41;;;;;;;5.93;3.72;;;;;;;17.07;43.71;99008.41;5029257;28;20046;-73
2023/05/11 09:17:09;;;;;;;6.90;3.80;;;;;;;17.05;43.73;98997.84;5029657;28;20088;-74
2023/05/11 09:19:36;;;;;;;5.00;3.85;;;;;;;17.03;43.48;99009.66;5028702;28;20046;-73
2023/05/11 09:22:05;;;;;;;4.70;3.55;;;;;;;16.92;43.41;99014.13;5012059;28;20037;-73
2023/05/11 09:24:32;;;;;;;6.53;3.88;;;;;;;16.85;43.30;99007.59;5029493;28;20048;-73
2023/05/11 09:27:19;;;;;;;7.03;3.47;;;;;;;14.75;42.34;98673.63;5028117;28;20046;-73
2023/05/11 09:29:45;;;;;;;4.72;3.00;;;;;;;15.81;43.55;98849.84;5029290;28;20038;-74
2023/05/11 09:32:13;;;;;;;7.97;3.47;;;;;;;16.82;43.23;98997.16;5029097;28;20051;-74
2023/05/11 09:34:40;;;;;;;5.82;3.20;;;;;;;16.90;43.40;98993.81;5028821;28;20038;-74
2023/05/11 09:37:16;;;;;;;4.18;2.92;;;;;;;16.81;41.46;98970.53;5028005;28;20080;-74
2023/05/11 09:39:43;;;;;;;5.50;3.33;;;;;;;16.99;42.44;99001.91;5028954;28;20088;-74
2023/05/11 09:42:16;;;;;;;4.00;2.97;;;;;;;17.00;41.23;98994.72;5028046;28;20056;-74
2023/05/11 09:44:44;;;;;;;4.07;3.15;;;;;;;16.41;42.04;98884.81;5028123;28;20042;-74
2023/05/11 09:47:13;;;;;;;4.78;2.65;;;;;;;17.04;41.65;99001.50;5029053;28;20037;-74
2023/05/11 09:49:43;;;;;;;5.80;2.60;;;;;;;17.02;41.36;98989.22;5029032;28;20045;-75
2023/05/11 09:52:11;;;;;;;4.47;2.50;;;;;;;17.03;41.60;98988.25;5027764;28;20085;-74
2023/05/11 09:54:44;;;;;;;5.50;3.53;;;;;;;17.09;40.99;98983.19;5028444;28;20045;-75
2023/05/11 09:57:25;;;;;;;5.28;2.90;;;;;;;16.80;39.30;98926.00;5027628;28;20076;-74
2023/05/11 09:59:55;;;;;;;5.95;2.85;;;;;;;15.82;40.70;98767.88;5028920;28;20038;-74
2023/05/11 10:02:23;;;;;;;5.72;2.60;;;;;;;17.21;41.27;98979.47;5028937;28;20061;-75
2023/05/11 10:04:51;;;;;;;5.85;2.97;;;;;;;17.22;40.45;98985.69;5026649;28;20042;-74
2023/05/11 10:07:28;;;;;;;5.72;3.40;;;;;;;17.20;39.65;98993.84;5028811;28;20060;-74
2023/05/11 10:09:57;;;;;;;10.25;3.13;;;;;;;17.18;40.31;98987.75;5027610;28;20320;-74
2023/05/11 10:12:26;;;;;;;5.63;2.92;;;;;;;17.15;39.89;98976.47;5027529;28;20045;-73
2023/05/11 10:14:56;;;;;;;8.05;4.22;;;;;;;16.89;40.51;98939.44;5028590;28;20049;-74
2023/05/11 10:17:25;;;;;;;6.07;2.58;;;;;;;17.22;40.56;98961.56;5028536;28;20041;-74
2023/05/11 10:19:54;;;;;;;6.38;2.95;;;;;;;17.24;40.46;98965.81;5028417;28;20337;-74
2023/05/11 10:22:24;;;;;;;4.55;2.90;;;;;;;17.35;39.73;98962.19;5028252;28;20048;-75
2023/05/11 10:24:51;;;;;;;7.28;3.35;;;;;;;17.40;40.16;98967.97;5027710;28;20045;-73
2023/05/11 10:27:19;;;;;;;4.55;3.03;;;;;;;17.48;39.73;98957.41;5028276;28;20122;-72
2023/05/11 10:29:47;;;;;;;6.20;3.45;;;;;;;17.63;39.62;98952.53;5026877;28;20120;-72
2023/05/11 10:32:16;;;;;;;11.77;4.05;;;;;;;17.57;39.30;98939.66;5026868;28;20046;-73
2023/05/11 10:34:45;;;;;;;6.22;2.78;;;;;;;17.70;39.75;98945.63;5026846;28;20041;-73
2023/05/11 10:37:15;;;;;;;5.30;2.90;;;;;;;17.80;39.68;98949.19;5027409;28;20120;-74
2023/05/11 10:39:45;;;;;;;5.05;3.30;;;;;;;17.65;39.24;98915.72;5027311;28;20056;-74
2023/05/11 10:42:38;;;;;;;3.45;2.85;;;;;;;17.95;37.59;98942.41;5026522;28;20069;-74
2023/05/11 10:45:30;;;;;;;4.85;2.63;;;;;;;17.79;37.82;98895.72;5027977;28;20076;-74
2023/05/11 10:48:47;;;;;;;5.75;3.20;;;;;;;18.12;38.34;98940.84;5026342;28;20053;-73
2023/05/11 10:51:33;;;;;;;28.17;4.75;;;;;;;18.21;38.44;98942.69;4967157;29;20051;-74
2023/05/11 10:54:18;;;;;;;4.05;2.65;;;;;;;18.17;39.32;98932.38;5021086;28;20069;-73
2023/05/11 10:57:02;;;;;;;4.57;3.45;;;;;;;18.19;39.00;98935.75;5027658;28;20050;-74
2023/05/11 10:59:51;;;;;;;7.35;3.22;;;;;;;18.14;38.96;98936.19;5026812;28;20052;-73
2023/05/11 11:02:20;;;;;;;7.30;3.72;;;;;;;18.08;39.58;98944.81;5026178;28;20209;-73
2023/05/11 11:04:49;;;;;;;8.15;3.17;;;;;;;18.13;39.68;98933.66;5026132;28;20328;-74
2023/05/11 11:07:18;;;;;;;11.00;3.22;;;;;;;18.13;39.38;98937.19;5025926;28;20137;-74
2023/05/11 11:09:53;;;;;;;3.72;2.70;;;;;;;18.06;38.38;98921.81;5027470;28;20057;-73
2023/05/11 11:12:22;;;;;;;4.32;2.75;;;;;;;17.64;39.62;98871.16;5025748;28;20049;-73
2023/05/11 11:14:58;;;;;;;5.78;3.03;;;;;;;17.50;38.82;98853.63;5027096;28;20357;-73
2023/05/11 11:17:30;;;;;;;5.03;3.00;;;;;;;17.94;39.22;98931.81;5025991;28;20197;-73
2023/05/11 11:19:57;;;;;;;8.15;3.67;;;;;;;17.41;39.76;98843.78;5025727;28;20144;-73
2023/05/11 11:22:45;;;;;;;5.40;2.90;;;;;;;17.90;38.92;98920.53;5026990;28;20038;-73
2023/05/11 11:25:13;;;;;;;4.88;3.22;;;;;;;17.89;39.47;98924.22;5026719;28;20061;-74
2023/05/11 11:27:57;;;;;;;7.03;3.10;;;;;;;17.89;38.52;98920.69;5026190;28;20037;-74
2023/05/11 11:30:25;;;;;;;7.18;3.40;;;;;;;17.91;39.51;98916.88;5024566;28;20045;-74
2023/05/11 11:32:55;;;;;;;5.30;3.03;;;;;;;17.95;39.20;98918.28;5026909;28;20049;-74
2023/05/11 11:35:48;;;;;;;5.07;3.38;;;;;;;18.05;38.26;98915.59;5025855;28;20073;-73
2023/05/11 11:38:17;;;;;;;5.80;3.50;;;;;;;18.14;39.48;98912.06;5025964;28;20037;-73
2023/05/11 11:40:45;;;;;;;7.20;2.90;;;;;;;18.22;38.87;98909.50;5026239;28;20117;-73
2023/05/11 11:43:13;;;;;;;7.88;3.10;;;;;;;18.23;38.67;98915.72;5025465;28;20088;-73